Time;durP1;ratioP1;P1;durP2;ratioP2;P2;SDS_P1;SDS_P2;PMS_P1;PMS_P2;Temp;Humidity;BMP_temperature;BMP_pressure;BME280_temperature;BME280_humidity;BME280_pressure;Samples;Min_cycle;Max_cycle;Signal;HPM_P1;HPM_P2
2022/01/24 00:00:34;;;;;;;;;;;6.80;99.90;;;;;;4946522;29;20317;-92
2022/01/24 00:03:22;;;;;;;;;;;6.80;99.90;;;;;;4943351;29;19910;-91
2022/01/24 00:06:10;;;;;;;;;;;;;;;;;;;;;
2022/01/24 00:17:12;;;;;;;;;;;6.80;99.90;;;;;;4960286;29;19929;-91
2022/01/24 00:31:21;;;;;;;;;;;6.80;99.90;;;;;;4946345;29;19925;-93
2022/01/24 00:34:14;;;;;;;;;;;6.80;99.90;;;;;;4959959;29;19906;-91
2022/01/24 00:36:52;;;;;;;;;;;;;;;;;;;;;
2022/01/24 00:39:23;;;;;;;;;;;6.70;99.90;;;;;;4959838;29;19911;-93
2022/01/24 00:45:32;;;;;;;;;;;6.70;99.90;;;;;;4919900;29;19911;-92
2022/01/24 00:48:19;;;;;;;;;;;6.70;99.90;;;;;;4903748;29;19946;-92
2022/01/24 00:59:39;;;;;;;;;;;6.70;99.90;;;;;;4941224;29;19942;-92
2022/01/24 01:05:09;;;;;;;;;;;6.70;99.90;;;;;;4930099;29;19911;-92
2022/01/24 01:18:07;;;;;;;;;;;6.70;99.90;;;;;;4930828;29;19953;-91
2022/01/24 01:19:27;;;;;;;;;;;6.60;99.90;;;;;;4946063;29;20049;-91
2022/01/24 01:21:56;;;;;;;;;;;6.60;99.90;;;;;;4927168;29;19920;-92
2022/01/24 01:27:35;;;;;;;;;;;;;;;;;;;;;
2022/01/24 01:30:32;;;;;;;;;;;;;;;;;;;;;
2022/01/24 01:33:13;;;;;;;;;;;6.60;99.90;;;;;;4946111;29;19911;-91
2022/01/24 01:56:38;;;;;;;;;;;6.60;99.60;;;;;;4901083;29;19915;-91
2022/01/24 01:59:09;;;;;;;;;;;6.60;99.50;;;;;;4885661;29;19919;-92
2022/01/24 02:01:45;;;;;;;;;;;6.60;99.50;;;;;;4915791;29;19907;-92
2022/01/24 02:04:42;;;;;;;;;;;;;;;;;;;;;
2022/01/24 02:07:22;;;;;;;;;;;;;;;;;;;;;
2022/01/24 02:10:24;;;;;;;;;;;6.60;99.50;;;;;;4940630;29;20002;-91
2022/01/24 02:13:26;;;;;;;;;;;;;;;;;;;;;
2022/01/24 02:16:27;;;;;;;;;;;;;;;;;;;;;
2022/01/24 02:19:08;;;;;;;;;;;6.50;99.50;;;;;;4939705;29;19919;-91
2022/01/24 02:24:54;;;;;;;;;;;6.60;99.70;;;;;;4944575;29;19911;-92
2022/01/24 02:27:25;;;;;;;;;;;6.50;99.70;;;;;;4941716;29;19927;-91
2022/01/24 02:33:10;;;;;;;;;;;6.50;99.80;;;;;;4950999;29;19947;-92
2022/01/24 02:35:42;;;;;;;;;;;6.50;99.90;;;;;;4943557;29;19918;-92
2022/01/24 02:52:54;;;;;;;;;;;6.50;99.90;;;;;;4905908;29;20308;-92
2022/01/24 02:55:41;;;;;;;;;;;;;;;;;;;;;
2022/01/24 02:58:32;;;;;;;;;;;;;;;;;;;;;
2022/01/24 03:04:27;;;;;;;;;;;6.40;99.90;;;;;;4925596;29;19927;-92
2022/01/24 03:07:23;;;;;;;;;;;6.40;99.90;;;;;;4924837;29;19928;-92
2022/01/24 03:10:34;;;;;;;;;;;;;;;;;;;;;
2022/01/24 03:13:11;;;;;;;;;;;6.40;99.90;;;;;;4934314;29;19977;-92
2022/01/24 03:15:59;;;;;;;;;;;6.40;99.90;;;;;;4938134;29;19906;-91
2022/01/24 03:18:52;;;;;;;;;;;6.40;99.90;;;;;;4938978;29;19954;-93
2022/01/24 03:24:48;;;;;;;;;;;;;;;;;;;;;
2022/01/24 03:27:40;;;;;;;;;;;6.30;99.90;;;;;;4921434;29;19915;-91
2022/01/24 03:33:15;;;;;;;;;;;6.30;99.90;;;;;;4917492;29;19911;-91
2022/01/24 03:36:09;;;;;;;;;;;6.30;99.90;;;;;;4917906;29;19930;-93
2022/01/24 03:38:29;;;;;;;;;;;6.30;99.90;;;;;;4923289;29;20358;-92
2022/01/24 03:47:29;;;;;;;;;;;;;;;;;;;;;
2022/01/24 03:50:08;;;;;;;;;;;;;;;;;;;;;
2022/01/24 03:56:13;;;;;;;;;;;;;;;;;;;;;
2022/01/24 03:58:59;;;;;;;;;;;;;;;;;;;;;
2022/01/24 04:04:54;;;;;;;;;;;6.10;99.90;;;;;;4891157;29;19911;-93
2022/01/24 04:11:08;;;;;;;;;;;6.10;99.90;;;;;;4901550;29;19907;-92
2022/01/24 04:13:38;;;;;;;;;;;6.10;99.90;;;;;;4936608;29;19914;-92
2022/01/24 04:16:40;;;;;;;;;;;6.10;99.90;;;;;;4935094;29;19907;-93
2022/01/24 04:22:18;;;;;;;;;;;6.10;99.90;;;;;;4879988;29;19916;-91
2022/01/24 04:24:58;;;;;;;;;;;;;;;;;;;;;
2022/01/24 04:27:40;;;;;;;;;;;6.10;99.90;;;;;;4907485;29;20053;-92
2022/01/24 04:30:36;;;;;;;;;;;6.10;99.90;;;;;;4922809;29;20297;-91
2022/01/24 04:33:34;;;;;;;;;;;;;;;;;;;;;
2022/01/24 04:36:28;;;;;;;;;;;6.10;99.90;;;;;;4945699;29;20014;-91
2022/01/24 04:39:16;;;;;;;;;;;6.10;99.90;;;;;;4942854;29;19977;-92
2022/01/24 04:42:43;;;;;;;;;;;6.10;99.90;;;;;;4957320;29;19910;-92
2022/01/24 04:45:57;;;;;;;;;;;6.10;99.90;;;;;;4954592;29;19906;-91
2022/01/24 04:57:04;;;;;;;;;;;6.10;99.90;;;;;;4941371;29;19915;-92
2022/01/24 04:59:44;;;;;;;;;;;6.10;99.90;;;;;;4926278;29;19959;-91
2022/01/24 05:05:30;;;;;;;;;;;;;;;;;;;;;
2022/01/24 05:08:03;;;;;;;;;;;6.10;99.90;;;;;;4960416;29;19912;-91
2022/01/24 05:11:34;;;;;;;;;;;6.10;99.90;;;;;;4943230;29;19921;-92
2022/01/24 05:25:17;;;;;;;;;;;6.00;99.90;;;;;;4951673;29;19917;-92
2022/01/24 05:27:53;;;;;;;;;;;6.00;99.90;;;;;;4960217;28;19899;-91
2022/01/24 05:30:29;;;;;;;;;;;6.00;99.90;;;;;;4963893;28;19906;-92
2022/01/24 05:33:17;;;;;;;;;;;6.00;99.90;;;;;;4963368;28;19911;-91
2022/01/24 05:39:22;;;;;;;;;;;;;;;;;;;;;
2022/01/24 05:41:53;;;;;;;;;;;6.00;99.90;;;;;;4961505;29;20005;-89
2022/01/24 05:44:19;;;;;;;;;;;6.00;99.90;;;;;;4944723;29;19993;-91
2022/01/24 05:47:17;;;;;;;;;;;;;;;;;;;;;
2022/01/24 05:49:43;;;;;;;;;;;6.00;99.90;;;;;;4959820;29;20355;-92
2022/01/24 05:52:46;;;;;;;;;;;6.00;99.90;;;;;;4942628;29;19957;-91
2022/01/24 05:55:17;;;;;;;;;;;6.00;99.90;;;;;;4942056;29;19911;-91
2022/01/24 05:57:52;;;;;;;;;;;6.00;99.90;;;;;;4938926;29;19921;-94
2022/01/24 06:00:32;;;;;;;;;;;;;;;;;;;;;
2022/01/24 06:06:29;;;;;;;;;;;5.90;99.90;;;;;;4937843;29;19906;-92
2022/01/24 06:12:33;;;;;;;;;;;6.00;99.90;;;;;;4953703;29;20262;-91
2022/01/24 06:18:24;;;;;;;;;;;;;;;;;;;;;
2022/01/24 06:20:55;;;;;;;;;;;5.90;99.90;;;;;;4954802;29;20009;-90
2022/01/24 06:23:28;;;;;;;;;;;6.00;99.90;;;;;;4925539;29;19982;-91
2022/01/24 06:26:03;;;;;;;;;;;6.00;99.90;;;;;;4940992;29;19954;-91
2022/01/24 06:28:43;;;;;;;;;;;5.90;99.90;;;;;;4941583;29;19914;-92
2022/01/24 06:31:27;;;;;;;;;;;5.90;99.90;;;;;;4941480;29;19911;-92
2022/01/24 06:33:53;;;;;;;;;;;5.90;99.90;;;;;;4941750;29;19906;-92
2022/01/24 06:36:22;;;;;;;;;;;5.90;99.90;;;;;;4941575;29;20013;-91
2022/01/24 06:39:11;;;;;;;;;;;5.90;99.90;;;;;;4941694;29;19910;-95
2022/01/24 06:41:50;;;;;;;;;;;5.90;99.90;;;;;;4932616;29;19907;-90
2022/01/24 06:44:23;;;;;;;;;;;5.90;99.90;;;;;;4927501;29;19929;-93
2022/01/24 06:46:53;;;;;;;;;;;5.90;99.80;;;;;;4942794;29;19965;-95
2022/01/24 06:49:37;;;;;;;;;;;5.90;99.80;;;;;;4927142;29;19915;-94
2022/01/24 06:52:23;;;;;;;;;;;5.90;99.80;;;;;;4960641;29;19906;-92
2022/01/24 06:54:53;;;;;;;;;;;5.90;99.80;;;;;;4954136;29;19910;-93
2022/01/24 06:57:29;;;;;;;;;;;5.90;99.80;;;;;;4946571;29;19918;-91
2022/01/24 07:00:07;;;;;;;;;;;5.90;99.80;;;;;;4946276;29;19945;-94
2022/01/24 07:02:33;;;;;;;;;;;5.90;99.70;;;;;;4944058;29;19911;-92
2022/01/24 07:04:59;;;;;;;;;;;5.90;99.60;;;;;;4955534;29;19942;-92
2022/01/24 07:07:28;;;;;;;;;;;5.90;99.60;;;;;;4942289;29;19928;-93
2022/01/24 07:09:56;;;;;;;;;;;5.90;99.60;;;;;;4926382;29;19910;-92
2022/01/24 07:12:25;;;;;;;;;;;5.90;99.70;;;;;;4942192;29;19930;-92
2022/01/24 07:14:51;;;;;;;;;;;5.90;99.70;;;;;;4941641;29;19911;-93
2022/01/24 07:17:33;;;;;;;;;;;5.90;99.70;;;;;;4941468;29;19937;-90
2022/01/24 07:19:58;;;;;;;;;;;5.90;99.70;;;;;;4941573;29;19925;-89
2022/01/24 07:22:26;;;;;;;;;;;5.90;99.70;;;;;;4957644;29;19907;-90
2022/01/24 07:24:52;;;;;;;;;;;5.90;99.70;;;;;;4925827;29;20008;-91
2022/01/24 07:27:17;;;;;;;;;;;5.90;99.70;;;;;;4941490;29;19910;-90
2022/01/24 07:29:48;;;;;;;;;;;5.90;99.70;;;;;;4925472;29;20001;-90
2022/01/24 07:32:14;;;;;;;;;;;5.90;99.60;;;;;;4942344;29;19914;-90
2022/01/24 07:34:39;;;;;;;;;;;5.90;99.60;;;;;;4942175;29;20359;-90
2022/01/24 07:37:05;;;;;;;;;;;5.90;99.60;;;;;;4942864;29;19919;-89
2022/01/24 07:39:31;;;;;;;;;;;5.90;99.50;;;;;;4958868;29;20291;-90
2022/01/24 07:42:03;;;;;;;;;;;5.90;99.50;;;;;;4925843;29;19941;-90
2022/01/24 07:44:41;;;;;;;;;;;;;;;;;;;;;
2022/01/24 07:47:20;;;;;;;;;;;5.90;99.50;;;;;;4925532;29;19936;-94
2022/01/24 07:49:51;;;;;;;;;;;5.90;99.50;;;;;;4922645;29;19957;-93
2022/01/24 07:52:17;;;;;;;;;;;5.90;99.50;;;;;;4907278;29;19911;-92
2022/01/24 07:54:45;;;;;;;;;;;5.90;99.50;;;;;;4922229;29;20271;-92
2022/01/24 07:57:10;;;;;;;;;;;5.90;99.50;;;;;;4937608;29;19919;-90
2022/01/24 07:59:36;;;;;;;;;;;5.90;99.50;;;;;;4922665;29;20422;-89
2022/01/24 08:02:02;;;;;;;;;;;5.90;99.50;;;;;;4923581;29;20398;-89
2022/01/24 08:04:28;;;;;;;;;;;5.90;99.50;;;;;;4925561;29;19969;-89
2022/01/24 08:06:53;;;;;;;;;;;5.90;99.50;;;;;;4941020;29;20401;-90
2022/01/24 08:09:19;;;;;;;;;;;5.90;99.50;;;;;;4925606;29;19907;-89
2022/01/24 08:11:47;;;;;;;;;;;6.00;99.50;;;;;;4925575;29;20418;-90
2022/01/24 08:14:16;;;;;;;;;;;5.90;99.40;;;;;;4925619;29;20347;-91
2022/01/24 08:16:44;;;;;;;;;;;5.90;99.40;;;;;;4925813;29;19914;-90
2022/01/24 08:19:10;;;;;;;;;;;5.90;99.40;;;;;;4926599;29;19946;-90
2022/01/24 08:21:36;;;;;;;;;;;5.90;99.40;;;;;;4927769;29;20363;-90
2022/01/24 08:24:02;;;;;;;;;;;5.90;99.40;;;;;;4927245;29;20340;-89
2022/01/24 08:26:30;;;;;;;;;;;6.00;99.40;;;;;;4943283;29;19898;-90
2022/01/24 08:28:56;;;;;;;;;;;6.00;99.40;;;;;;4947021;29;19966;-88
2022/01/24 08:31:22;;;;;;;;;;;6.00;99.40;;;;;;4946364;29;19903;-90
2022/01/24 08:33:48;;;;;;;;;;;6.00;99.60;;;;;;4977324;29;19907;-90
2022/01/24 08:36:14;;;;;;;;;;;6.00;99.40;;;;;;4940996;29;19918;-89
2022/01/24 08:38:40;;;;;;;;;;;6.00;99.30;;;;;;4940800;29;19911;-90
2022/01/24 08:41:16;;;;;;;;;;;6.00;99.30;;;;;;4942002;29;19907;-91
2022/01/24 08:43:58;;;;;;;;;;;6.00;99.30;;;;;;4940549;29;19917;-90
2022/01/24 08:46:29;;;;;;;;;;;6.00;99.30;;;;;;4941418;29;19913;-92
2022/01/24 08:49:06;;;;;;;;;;;6.00;99.30;;;;;;4940275;29;19907;-91
2022/01/24 08:51:38;;;;;;;;;;;6.10;99.30;;;;;;4940033;29;19911;-90
2022/01/24 08:54:07;;;;;;;;;;;6.10;99.30;;;;;;4939716;29;19911;-90
2022/01/24 08:56:33;;;;;;;;;;;6.10;99.20;;;;;;4939447;29;19910;-90
2022/01/24 08:59:06;;;;;;;;;;;6.10;99.20;;;;;;4940674;29;19943;-90
2022/01/24 09:01:32;;;;;;;;;;;6.10;99.20;;;;;;4925180;29;20410;-91
2022/01/24 09:03:58;;;;;;;;;;;6.10;99.20;;;;;;4942794;29;19950;-90
2022/01/24 09:06:24;;;;;;;;;;;6.10;99.20;;;;;;4941865;29;19906;-90
2022/01/24 09:09:09;;;;;;;;;;;6.10;99.20;;;;;;4941360;29;20259;-90
2022/01/24 09:11:38;;;;;;;;;;;6.10;99.20;;;;;;4940867;29;19965;-91
2022/01/24 09:14:07;;;;;;;;;;;6.20;99.20;;;;;;4940396;29;19906;-90
2022/01/24 09:16:38;;;;;;;;;;;6.20;99.20;;;;;;4941136;29;20005;-90
2022/01/24 09:19:04;;;;;;;;;;;6.20;99.10;;;;;;4940767;29;20264;-91
2022/01/24 09:21:38;;;;;;;;;;;6.20;99.10;;;;;;4941257;29;19907;-90
2022/01/24 09:24:04;;;;;;;;;;;6.20;99.10;;;;;;4942265;29;19913;-92
2022/01/24 09:26:31;;;;;;;;;;;6.20;99.10;;;;;;4940896;29;19907;-90
2022/01/24 09:28:56;;;;;;;;;;;6.30;99.10;;;;;;4941381;29;19907;-91
2022/01/24 09:31:22;;;;;;;;;;;6.30;99.10;;;;;;4941248;29;19906;-91
2022/01/24 09:33:52;;;;;;;;;;;6.30;99.00;;;;;;4941039;29;19906;-91
2022/01/24 09:36:42;;;;;;;;;;;6.30;99.00;;;;;;4940691;29;19919;-90
2022/01/24 09:39:12;;;;;;;;;;;6.30;98.90;;;;;;4942176;29;19911;-93
2022/01/24 09:41:58;;;;;;;;;;;6.30;98.90;;;;;;4925640;29;20001;-91
2022/01/24 09:44:23;;;;;;;;;;;6.30;99.00;;;;;;4939674;29;20009;-91
2022/01/24 09:46:51;;;;;;;;;;;6.30;99.00;;;;;;4938874;29;19945;-89
2022/01/24 09:49:17;;;;;;;;;;;6.30;99.00;;;;;;4940213;29;19907;-90
2022/01/24 09:51:45;;;;;;;;;;;6.40;99.00;;;;;;4940906;29;19946;-91
2022/01/24 09:54:19;;;;;;;;;;;6.40;98.90;;;;;;4942005;29;19911;-89
2022/01/24 09:56:57;;;;;;;;;;;6.40;98.90;;;;;;4961164;29;19926;-90
2022/01/24 09:59:23;;;;;;;;;;;6.40;98.90;;;;;;4961120;29;19926;-90
2022/01/24 10:01:48;;;;;;;;;;;6.40;98.80;;;;;;4961388;29;19906;-90
2022/01/24 10:04:16;;;;;;;;;;;6.40;98.70;;;;;;4957277;29;19911;-90
2022/01/24 10:06:56;;;;;;;;;;;6.40;98.70;;;;;;4941329;29;19906;-91
2022/01/24 10:09:31;;;;;;;;;;;6.40;98.70;;;;;;4940148;29;19907;-90
2022/01/24 10:12:12;;;;;;;;;;;6.40;98.70;;;;;;4940637;29;19907;-90
2022/01/24 12:40:27;;;;;;;;;;;;;;;;;;;;;
2022/01/24 12:46:36;;;;;;;;;;;;;;;;;;;;;
2022/01/24 13:09:01;;;;;;;;;;;;;;;;;;;;;
2022/01/24 13:47:07;;;;;;;;;;;;;;;;;;;;;
2022/01/24 14:10:07;;;;;;;;;;;;;;;;;;;;;
2022/01/24 14:38:17;;;;;;;;;;;;;;;;;;;;;
2022/01/24 20:49:36;;;;;;;;;;;;;;;;;;;;;
2022/01/24 20:52:57;;;;;;;;;;;;;;;;;;;;;
2022/01/24 20:55:54;;;;;;;;;;;;;;;;;;;;;
2022/01/24 21:24:00;;;;;;;;;;;6.30;97.30;;;;;;4659015;30;20355;-90
